Nearby METAR Reports

 

KCOE - Coeur D'alene, Idaho, USA
Distance from station: SSE 4mi, 7km
Updated: Mon, 20-Aug-2018 1:56am PDT
Haze, Clear
Haze, Clear
 Wind from NE
Wind: NE 7 mph , 11 km/h
Temperature: 59°F , 15°C
Dew Point: 48°F , 9°C
Humidity: 68%
Barometer: 29.97 inHg , 1014.9 hPa
Summary: Haze
Clouds: Clear
Visibility: 1 3/4 miles , 5 km
2018/08/20 08:56 KCOE 200856Z AUTO 05006KT 1 3/4SM HZ CLR 15/09 A2997 RMK AO2 SLP149 T01500094 58002
KSFF - Spokane/Felts, Washington, USA
Distance from station: WSW 24mi, 39km
Updated: Mon, 20-Aug-2018 1:53am PDT
Smoke, Overcast
Smoke, Overcast
 Wind from calm
Wind: Calm
Temperature: 57°F , 14°C
Dew Point: 48°F , 9°C
Humidity: 72%
Barometer: 29.96 inHg , 1014.6 hPa
Summary: Smoke
Clouds: Overcast
Visibility: 1 mile , 2 km
Cloud details: Overcast 2800 ft
2018/08/20 08:53 KSFF 200853Z AUTO 00000KT 1SM FU OVC028 14/09 A2996 RMK AO2 SLP133 T01390089 58001
 
KDEW - Deer Park, Washington, USA
Distance from station: WNW 29mi, 47km
Updated: Mon, 20-Aug-2018 1:53am PDT
Haze, Overcast
Haze, Overcast
 Wind from NNW
Wind: NNW 7 mph , 11 km/h
Temperature: 54°F , 12°C
Dew Point: 45°F , 7°C
Humidity: 72%
Barometer: 29.97 inHg , 1014.9 hPa
Summary: Haze
Clouds: Overcast
Visibility: 1 mile , 2 km
Cloud details: Overcast 2300 ft
2018/08/20 08:53 KDEW 200853Z AUTO 34006KT 1SM HZ OVC023 12/07 A2997 RMK AO2 SLP140 T01220067 50000
KSZT - Wall/Sandpoint, Idaho, USA
Distance from station: NNE 35mi, 56km
Updated: Mon, 20-Aug-2018 2:15am PDT
Haze, Clear
Haze, Clear
 Wind from NNE
Wind: NNE 16 mph , 26 km/h, Gust: 20 mph , 31 km/h
Temperature: 61°F , 16°C
Dew Point: 46°F , 8°C
Humidity: 59%
Barometer: 29.97 inHg , 1014.9 hPa
Summary: Haze
Clouds: Clear
Visibility: 2 1/2 miles , 2 km
2018/08/20 09:15 KSZT 200915Z AUTO 02014G17KT 2 1/2SM HZ CLR 16/08 A2997 RMK AO2
 
KGEG - Spokane/Metro, Washington, USA
Distance from station: WSW 35mi, 57km
Updated: Mon, 20-Aug-2018 1:53am PDT
Smoke, Overcast
Smoke, Overcast
 Wind from calm
Wind: Calm
Temperature: 61°F , 16°C
Dew Point: 43°F , 6°C
Humidity: 52%
Barometer: 29.96 inHg , 1014.6 hPa
Summary: Smoke
Clouds: Overcast
Visibility: 1 1/4 miles , 2 km
Cloud details: Overcast 1900 ft
2018/08/20 08:53 KGEG 200853Z 00000KT 1 1/4SM FU VV019 16/06 A2996 RMK AO2 TWR VIS 1 1/2 SLP132 T01610061 58003
KSKA - Fairchild Afb, Washington, USA
Distance from station: WSW 40mi, 65km
Updated: Mon, 20-Aug-2018 1:58am PDT
Smoke, Overcast
Smoke, Overcast
 Wind from NNW
Wind: NNW 6 mph , 9 km/h
Temperature: 55°F , 13°C
Dew Point: 41°F , 5°C
Humidity: 59%
Barometer: 29.97 inHg , 1014.9 hPa
Summary: Smoke
Clouds: Overcast
Visibility: 5/8 mile , 8 km
Cloud details: Overcast 2300 ft
2018/08/20 08:58 KSKA 200858Z 33005KT 5/8SM R05/P6000FT FU VV023 13/05 A2997 RMK AO2A TWR VIS 1 1/4 SLP142 T01300049 58001 $